Aviation Digital Data Service (ADDS)

Output produced by METARs form (0037 UTC 23 March 2019)
found at http://www.aviationweather.gov/metar/data/
 
Forecast for: WMKL (LANGKAWI INTL AR, MY)
Text: TAF WMKL 222300Z 2300/2400 VRB03KT 9999 FEW022 BKN280
Forecast period: 0000 to 0400 UTC 23 March 2019
Forecast type: FROM: standard forecast or significant change
Winds: variable direction winds at 3 MPH (3 knots; 1.5 m/s)
Visibility: 6 or more miles 10+ km)
Ceiling: 28000 feet AGL
Clouds: few clouds at 2200 feet AGL
broken clouds at 28000 feet AGL
Weather: no significant weather forecast for this period
Text: BECMG 2304/2306 23007KT
Forecast period: 0400 to 1200 UTC 23 March 2019
Forecast type: BECOMING: Conditions expected to become as follows by 0600 UTC 23 March 2019
Winds: from the SW (230 degrees) at 8 MPH (7 knots; 3.6 m/s)
Visibility: 6 or more miles 10+ km)
Ceiling: 28000 feet AGL
Clouds: few clouds at 2200 feet AGL
broken clouds at 28000 feet AGL
Weather: no significant weather forecast for this period
Text: BECMG 2312/2314 VRB03KT FEW026
Forecast period: 1200 UTC 23 March 2019 to 0000 UTC 24 March 2019
Forecast type: BECOMING: Conditions expected to become as follows by 1400 UTC 23 March 2019
Winds: variable direction winds at 3 MPH (3 knots; 1.5 m/s)
Visibility: 6 or more miles 10+ km)
Ceiling: at least 12,000 feet AGL
Clouds: few clouds at 2600 feet AGL
Weather: no significant weather forecast for this period